Skip Navigation LinksHome page > Weather > Current weather Skip Navigation Links

Current Weather

Ben-Gurion Intl Apt, Tel Aviv, Israel

For information only: do not use for flight planning or navigation.
Latest weather
Observation time Wednesday, January 18, 2017 3:20 PM IST
Local time Wednesday, January 18, 2017 3:58 PM IST
Flight conditions Visual Meteorological Conditions
Winds
Wind direction West (260°)
Wind speed 8 mph
Visibility 6.2 mi.
Sky condition
Ceiling unlimited
Cloud layer scattered clouds 3,000 ft.
Temperature 66°F
Dewpoint 50°F
Altimeter 30.06 in.Hg
Derived measurements
Relative humidity 56%
Density altitude 645 ft.
Remarks
No significant changes expected in the next two hours.
METAR LLBG 181320Z 26007KT 9999 SCT030 19/10 Q1018 NOSIG

Settings

Location code

InnerDrive.Weather 4.0.6144.1 Release CLR 4.0.30319.34209
Copyright ©2015 Inner Drive Technology. All rights reserved. Portions Copyright ©1986-2015 David Braverman.

Find weather

Site navigation


Skip Navigation Links

Place info

Page info

PayPal - The safer, easier way to pay online!

Return home.

Copyright ©2017 Inner Drive Technology. Purveyors of fine, hand-crafted computer software. Page printed 2017-01-18T13:58:13 UTC.